Time;durP1;ratioP1;P1;durP2;ratioP2;P2;SDS_P1;SDS_P2;PMS_P1;PMS_P2;Temp;Humidity;BMP_temperature;BMP_pressure;BME280_temperature;BME280_humidity;BME280_pressure;Samples;Min_cycle;Max_cycle;Signal;HPM_P1;HPM_P2
2023/10/21 00:02:14;;;;;;;1.25;1.15;;;10.10;99.90;;;;;;5015593;28;20046;-78
2023/10/21 00:04:40;;;;;;;1.90;1.08;;;10.20;99.90;;;;;;5015047;28;20399;-79
2023/10/21 00:07:05;;;;;;;1.00;0.93;;;10.20;99.90;;;;;;5014987;28;20038;-78
2023/10/21 00:09:31;;;;;;;2.03;0.52;;;10.20;99.90;;;;;;5017259;28;20042;-79
2023/10/21 00:11:57;;;;;;;19.95;1.52;;;10.30;99.90;;;;;;5019265;28;20036;-79
2023/10/21 00:14:22;;;;;;;1.40;1.23;;;10.30;99.90;;;;;;5018710;28;20558;-79
2023/10/21 00:16:49;;;;;;;1.20;0.88;;;10.30;99.90;;;;;;5019914;28;20034;-80
2023/10/21 00:19:15;;;;;;;1.73;1.63;;;10.30;99.90;;;;;;5019696;28;20076;-79
2023/10/21 00:21:41;;;;;;;0.77;0.63;;;10.30;99.90;;;;;;5019273;28;20467;-79
2023/10/21 00:24:07;;;;;;;2.58;1.75;;;10.30;99.90;;;;;;5019064;28;20038;-79
2023/10/21 00:26:47;;;;;;;2.15;1.95;;;10.20;99.90;;;;;;5018453;28;20041;-79
2023/10/21 00:29:14;;;;;;;1.70;1.05;;;11.00;99.90;;;;;;5018735;28;20050;-79
2023/10/21 00:31:40;;;;;;;15.45;2.42;;;10.10;99.90;;;;;;5018660;28;20042;-79
2023/10/21 00:34:06;;;;;;;1.38;1.13;;;11.10;99.90;;;;;;5018304;28;20042;-79
2023/10/21 00:36:32;;;;;;;2.40;1.90;;;10.00;99.90;;;;;;5019057;28;20541;-79
2023/10/21 00:38:57;;;;;;;3.03;1.77;;;10.00;99.90;;;;;;5018596;28;20450;-79
2023/10/21 00:41:23;;;;;;;0.75;0.75;;;10.00;99.90;;;;;;5018735;28;20038;-79
2023/10/21 00:43:49;;;;;;;9.45;3.47;;;10.40;99.90;;;;;;5017491;28;20049;-79
2023/10/21 00:46:18;;;;;;;8.05;2.95;;;10.00;99.90;;;;;;5018312;28;20044;-79
2023/10/21 00:48:45;;;;;;;2.47;1.92;;;9.90;99.90;;;;;;5017729;28;20092;-78
2023/10/21 00:51:11;;;;;;;1.23;1.13;;;9.90;99.90;;;;;;5018002;28;20037;-79
2023/10/21 00:53:37;;;;;;;1.90;1.75;;;9.90;99.90;;;;;;5018493;28;20108;-79
2023/10/21 00:56:05;;;;;;;2.67;1.85;;;9.90;99.90;;;;;;5017633;28;20069;-79
2023/10/21 00:58:31;;;;;;;2.10;1.85;;;10.00;99.90;;;;;;5017650;28;20049;-79
2023/10/21 01:00:58;;;;;;;2.33;1.63;;;10.00;99.90;;;;;;5018305;28;20109;-79
2023/10/21 01:03:26;;;;;;;2.15;1.85;;;10.00;99.90;;;;;;5017710;28;20495;-79
2023/10/21 01:05:52;;;;;;;4.72;2.38;;;9.90;99.90;;;;;;5032669;28;20053;-79
2023/10/21 01:08:18;;;;;;;0.93;0.88;;;9.80;99.90;;;;;;5016250;28;20387;-79
2023/10/21 01:10:44;;;;;;;2.60;2.40;;;9.90;99.90;;;;;;5017174;28;20080;-79
2023/10/21 01:13:09;;;;;;;3.15;1.67;;;9.80;99.90;;;;;;5017620;28;20109;-78
2023/10/21 01:15:35;;;;;;;2.28;1.75;;;9.80;99.90;;;;;;5017799;28;20034;-79
2023/10/21 01:18:03;;;;;;;1.58;1.48;;;9.70;99.90;;;;;;5016085;28;20054;-79
2023/10/21 01:20:29;;;;;;;6.65;1.33;;;9.60;99.90;;;;;;5018133;28;20061;-79
2023/10/21 01:22:58;;;;;;;2.05;1.20;;;9.60;99.90;;;;;;5017384;28;20480;-79
2023/10/21 01:25:24;;;;;;;0.55;0.55;;;9.70;99.90;;;;;;5017277;28;20080;-78
2023/10/21 01:27:55;;;;;;;3.50;1.95;;;9.60;99.90;;;;;;5017503;28;20041;-79
2023/10/21 01:30:22;;;;;;;2.40;1.40;;;9.60;99.90;;;;;;5017289;28;20049;-79
2023/10/21 01:32:48;;;;;;;2.08;1.33;;;9.50;99.90;;;;;;5017142;28;20042;-79
2023/10/21 01:35:17;;;;;;;4.03;3.15;;;9.50;99.90;;;;;;5017348;28;20061;-79
2023/10/21 01:37:44;;;;;;;2.42;2.17;;;9.50;99.90;;;;;;5016959;28;20073;-79
2023/10/21 01:40:10;;;;;;;5.28;1.48;;;9.60;99.90;;;;;;5017315;28;20041;-79
2023/10/21 01:42:37;;;;;;;2.13;1.98;;;9.50;99.90;;;;;;5017275;28;20069;-79
2023/10/21 01:45:04;;;;;;;2.05;1.63;;;9.50;99.90;;;;;;5017030;28;20045;-79
2023/10/21 01:47:30;;;;;;;2.80;1.52;;;9.50;99.90;;;;;;5016542;28;20451;-79
2023/10/21 01:49:57;;;;;;;1.55;1.33;;;9.60;99.90;;;;;;5016831;28;20049;-79
2023/10/21 01:52:23;;;;;;;1.63;1.52;;;9.60;99.90;;;;;;5017225;28;20050;-78
2023/10/21 01:54:50;;;;;;;7.25;2.05;;;9.60;99.90;;;;;;5016329;28;20048;-79
2023/10/21 01:57:15;;;;;;;3.63;1.98;;;9.60;99.90;;;;;;5016946;28;20054;-79
2023/10/21 01:59:41;;;;;;;3.90;1.55;;;9.50;99.90;;;;;;5016540;28;20042;-78
2023/10/21 02:02:07;;;;;;;5.70;2.10;;;10.20;99.90;;;;;;5016948;28;20460;-79
2023/10/21 02:04:33;;;;;;;2.40;2.20;;;9.50;99.90;;;;;;5017126;28;20124;-78
2023/10/21 02:06:59;;;;;;;2.80;1.90;;;9.50;99.90;;;;;;5016555;28;20044;-79
2023/10/21 02:09:24;;;;;;;1.42;1.15;;;9.40;99.90;;;;;;5017018;28;20056;-79
2023/10/21 02:11:55;;;;;;;1.17;1.08;;;9.50;99.90;;;;;;5017181;28;20037;-79
2023/10/21 02:14:22;;;;;;;2.28;2.08;;;9.50;99.90;;;;;;5017266;28;20447;-79
2023/10/21 02:16:52;;;;;;;1.45;1.10;;;9.50;99.90;;;;;;5016816;28;20038;-79
2023/10/21 02:19:17;;;;;;;0.75;0.65;;;9.50;99.90;;;;;;5016945;28;20054;-79
2023/10/21 02:21:43;;;;;;;1.35;1.23;;;9.40;99.90;;;;;;5017418;28;20053;-79
2023/10/21 02:24:09;;;;;;;2.53;2.33;;;9.50;99.90;;;;;;5013756;28;20163;-77
2023/10/21 02:26:34;;;;;;;0.93;0.65;;;9.50;99.90;;;;;;5013107;28;20045;-79
2023/10/21 02:29:00;;;;;;;2.70;2.47;;;9.40;99.90;;;;;;5013150;28;20046;-79
2023/10/21 02:31:25;;;;;;;2.65;1.42;;;9.30;99.90;;;;;;5013245;28;20049;-78
2023/10/21 02:33:52;;;;;;;1.20;1.10;;;9.20;99.90;;;;;;5013016;28;20046;-78
2023/10/21 02:36:18;;;;;;;3.30;1.92;;;9.30;99.90;;;;;;5013239;28;20125;-78
2023/10/21 02:38:44;;;;;;;1.27;1.08;;;9.30;99.90;;;;;;5013029;28;20070;-78
2023/10/21 02:41:10;;;;;;;0.65;0.65;;;9.30;99.90;;;;;;5013233;28;20033;-78
2023/10/21 02:43:35;;;;;;;2.42;2.08;;;9.30;99.90;;;;;;5013281;28;20122;-79
2023/10/21 02:46:11;;;;;;;2.75;2.00;;;9.30;99.90;;;;;;5013004;28;20045;-78
2023/10/21 02:48:38;;;;;;;2.30;2.10;;;9.30;99.90;;;;;;5013703;28;20408;-78
2023/10/21 02:51:14;;;;;;;3.92;2.53;;;9.40;99.90;;;;;;5012982;28;20049;-79
2023/10/21 02:53:40;;;;;;;1.02;0.57;;;9.60;99.90;;;;;;5013385;28;20049;-78
2023/10/21 02:56:07;;;;;;;9.38;1.98;;;9.40;99.90;;;;;;5012779;28;20045;-78
2023/10/21 02:58:34;;;;;;;1.30;1.20;;;9.50;99.90;;;;;;5012963;28;20610;-78
2023/10/21 03:01:17;;;;;;;1.38;1.27;;;9.50;99.90;;;;;;5012567;28;20041;-78
2023/10/21 03:03:44;;;;;;;1.02;0.77;;;9.50;99.90;;;;;;5013341;28;20042;-78
2023/10/21 03:06:10;;;;;;;1.27;1.10;;;9.50;99.90;;;;;;5012314;28;20081;-78
2023/10/21 03:08:36;;;;;;;4.80;3.85;;;9.50;99.90;;;;;;5015997;28;20038;-79
2023/10/21 03:11:03;;;;;;;1.67;1.52;;;9.50;99.90;;;;;;5016190;28;20042;-79
2023/10/21 03:13:30;;;;;;;0.80;0.77;;;9.40;99.90;;;;;;5018964;28;20065;-79
2023/10/21 03:15:56;;;;;;;0.75;0.75;;;9.90;99.90;;;;;;5018093;28;20183;-78
2023/10/21 03:18:22;;;;;;;1.80;1.63;;;9.50;99.90;;;;;;5019336;28;20072;-79
2023/10/21 03:20:52;;;;;;;5.60;2.08;;;9.40;99.90;;;;;;5019155;28;20403;-79
2023/10/21 03:23:18;;;;;;;4.00;2.15;;;9.40;99.90;;;;;;5018979;28;20060;-79
2023/10/21 03:26:03;;;;;;;2.58;2.10;;;9.40;99.90;;;;;;5018185;28;20056;-78
2023/10/21 03:28:29;;;;;;;1.85;1.50;;;9.60;99.90;;;;;;5018551;28;20391;-78
2023/10/21 03:30:59;;;;;;;2.35;2.15;;;9.50;99.90;;;;;;5019049;28;20040;-79
2023/10/21 03:33:27;;;;;;;3.00;2.08;;;9.50;99.90;;;;;;5019709;28;20046;-79
2023/10/21 03:35:58;;;;;;;4.47;0.77;;;10.50;99.90;;;;;;5019074;28;20037;-78
2023/10/21 03:38:24;;;;;;;2.63;1.70;;;9.40;99.90;;;;;;5019202;28;20077;-79
2023/10/21 03:41:04;;;;;;;2.90;2.53;;;9.40;99.90;;;;;;5019027;28;20046;-79
2023/10/21 03:43:30;;;;;;;1.05;0.82;;;9.40;99.90;;;;;;5019192;28;20053;-79
2023/10/21 03:45:56;;;;;;;0.75;0.75;;;9.40;99.90;;;;;;5019100;28;20037;-78
2023/10/21 03:48:22;;;;;;;1.42;1.30;;;9.40;99.90;;;;;;5019063;28;20042;-79
2023/10/21 03:50:49;;;;;;;1.52;1.27;;;9.40;99.90;;;;;;5019093;28;20050;-79
2023/10/21 03:53:15;;;;;;;10.43;2.55;;;9.40;99.90;;;;;;5002333;28;20049;-79
2023/10/21 03:55:41;;;;;;;1.48;1.38;;;9.40;99.90;;;;;;5018299;28;20034;-79
2023/10/21 03:58:07;;;;;;;3.25;2.08;;;9.40;99.90;;;;;;5018400;28;20041;-78
2023/10/21 04:00:34;;;;;;;3.03;1.52;;;9.30;99.90;;;;;;5019349;28;20041;-78
2023/10/21 04:03:00;;;;;;;0.98;0.85;;;9.40;99.90;;;;;;5017309;28;20045;-79
2023/10/21 04:05:25;;;;;;;1.55;1.45;;;9.40;99.90;;;;;;5017898;28;20096;-79
2023/10/21 04:07:51;;;;;;;1.23;1.13;;;9.60;99.90;;;;;;5017375;28;20041;-79
2023/10/21 04:10:16;;;;;;;0.93;0.80;;;9.40;99.90;;;;;;5023185;28;20034;-79
2023/10/21 04:12:42;;;;;;;1.73;0.85;;;9.40;99.90;;;;;;5018230;28;20440;-78
2023/10/21 04:15:08;;;;;;;3.90;2.10;;;9.30;99.90;;;;;;5018435;28;20113;-79
2023/10/21 04:17:37;;;;;;;5.20;1.73;;;9.30;99.90;;;;;;5016682;28;20049;-79
2023/10/21 04:20:03;;;;;;;1.00;0.90;;;9.40;99.90;;;;;;5015136;28;20046;-78
2023/10/21 04:22:30;;;;;;;1.70;1.05;;;9.40;99.90;;;;;;5015545;28;20045;-78
2023/10/21 04:24:56;;;;;;;0.63;0.63;;;9.30;99.90;;;;;;5015123;28;20046;-78
2023/10/21 04:27:21;;;;;;;1.98;1.58;;;9.20;99.90;;;;;;5014994;28;20092;-78
2023/10/21 04:29:47;;;;;;;1.60;1.05;;;9.20;99.90;;;;;;5014839;28;20034;-78
2023/10/21 04:32:12;;;;;;;0.93;0.80;;;9.20;99.90;;;;;;5015019;28;20113;-78
2023/10/21 04:34:38;;;;;;;0.70;0.65;;;9.30;99.90;;;;;;5014889;28;20373;-78
2023/10/21 04:37:04;;;;;;;1.45;1.27;;;9.20;99.90;;;;;;5015163;28;20034;-78
2023/10/21 04:39:30;;;;;;;1.02;0.68;;;9.20;99.90;;;;;;5014703;28;20038;-78
2023/10/21 04:41:56;;;;;;;1.95;0.55;;;9.20;99.90;;;;;;5014588;28;20046;-78
2023/10/21 04:44:21;;;;;;;2.10;1.20;;;9.10;99.90;;;;;;5014471;28;20034;-78
2023/10/21 04:46:47;;;;;;;0.50;0.30;;;9.10;99.90;;;;;;5014677;28;20426;-79
2023/10/21 04:49:13;;;;;;;1.38;1.27;;;9.20;99.90;;;;;;5014701;28;20514;-78
2023/10/21 04:51:40;;;;;;;0.68;0.60;;;9.10;99.90;;;;;;5014679;28;20053;-78
2023/10/21 04:54:07;;;;;;;0.60;0.55;;;9.10;99.90;;;;;;5014379;28;20522;-78
2023/10/21 04:56:33;;;;;;;1.48;0.82;;;9.10;99.90;;;;;;5014627;28;20096;-78
2023/10/21 04:58:59;;;;;;;0.68;0.63;;;9.10;99.90;;;;;;5014402;28;20041;-78
2023/10/21 05:01:25;;;;;;;0.95;0.73;;;9.00;99.90;;;;;;5014202;28;20503;-78
2023/10/21 05:03:50;;;;;;;0.50;0.50;;;9.00;99.90;;;;;;5013973;28;20037;-79
2023/10/21 05:06:16;;;;;;;0.45;0.45;;;9.00;99.90;;;;;;5014706;28;20121;-78
2023/10/21 05:08:41;;;;;;;2.95;1.10;;;8.90;99.90;;;;;;5014354;28;20480;-78
2023/10/21 05:11:07;;;;;;;0.30;0.30;;;8.90;99.90;;;;;;5017003;28;20041;-79
2023/10/21 05:13:33;;;;;;;0.65;0.65;;;8.90;99.90;;;;;;5016967;28;20048;-78
2023/10/21 05:15:58;;;;;;;0.52;0.52;;;8.80;99.90;;;;;;5017773;28;20439;-79
2023/10/21 05:18:24;;;;;;;0.73;0.73;;;8.90;99.90;;;;;;4999577;28;20038;-78
2023/10/21 05:20:50;;;;;;;1.65;1.05;;;8.90;99.90;;;;;;5017740;28;20038;-79
2023/10/21 05:23:15;;;;;;;1.30;1.20;;;8.80;99.90;;;;;;5018194;28;20038;-78
2023/10/21 05:25:41;;;;;;;1.35;0.95;;;9.00;99.90;;;;;;5018067;28;20034;-79
2023/10/21 05:28:06;;;;;;;2.78;1.45;;;9.00;99.90;;;;;;5017957;28;20054;-79
2023/10/21 05:30:32;;;;;;;2.65;1.27;;;9.00;99.90;;;;;;5017690;28;20048;-79
2023/10/21 05:32:58;;;;;;;2.75;2.00;;;9.10;99.90;;;;;;5017478;28;20049;-79
2023/10/21 05:35:23;;;;;;;0.13;0.13;;;9.10;99.90;;;;;;5017157;28;20499;-79
2023/10/21 05:37:49;;;;;;;1.30;0.70;;;9.20;99.90;;;;;;5017827;28;20042;-78
2023/10/21 05:40:15;;;;;;;1.42;1.33;;;9.20;99.90;;;;;;5018438;28;20066;-79
2023/10/21 05:42:41;;;;;;;1.33;0.98;;;9.20;99.90;;;;;;5017634;28;20380;-79
2023/10/21 05:45:08;;;;;;;11.48;2.00;;;9.30;99.90;;;;;;5015771;28;20096;-79
2023/10/21 05:47:35;;;;;;;1.08;0.85;;;9.40;99.90;;;;;;5015706;28;20046;-79
2023/10/21 05:50:01;;;;;;;0.88;0.85;;;9.50;99.90;;;;;;5016585;28;20046;-79
2023/10/21 05:52:27;;;;;;;1.33;0.95;;;9.50;99.90;;;;;;5016975;28;20100;-79
2023/10/21 05:54:52;;;;;;;0.80;0.80;;;9.50;99.90;;;;;;5016059;28;20116;-79
2023/10/21 05:57:18;;;;;;;1.30;1.00;;;9.60;99.90;;;;;;5016542;28;20526;-79
2023/10/21 05:59:44;;;;;;;0.98;0.73;;;9.70;99.90;;;;;;5016175;28;20549;-79
2023/10/21 06:02:11;;;;;;;0.90;0.88;;;9.60;99.90;;;;;;5017269;28;20093;-79
2023/10/21 06:04:37;;;;;;;0.10;0.10;;;9.60;99.90;;;;;;5016181;28;20085;-79
2023/10/21 06:07:02;;;;;;;0.43;0.43;;;9.60;99.90;;;;;;5016968;28;20049;-79
2023/10/21 06:09:28;;;;;;;2.17;0.55;;;9.60;99.90;;;;;;5014830;28;20073;-79
2023/10/21 06:11:53;;;;;;;1.15;0.73;;;9.70;99.90;;;;;;5014021;28;20080;-79
2023/10/21 06:14:19;;;;;;;1.20;1.15;;;9.70;99.90;;;;;;5014205;28;20053;-79
2023/10/21 06:16:45;;;;;;;0.70;0.57;;;9.70;99.90;;;;;;5013232;28;20506;-79
2023/10/21 06:19:11;;;;;;;1.13;0.93;;;9.70;99.90;;;;;;5013919;28;20056;-79
2023/10/21 06:21:37;;;;;;;0.68;0.65;;;9.80;99.90;;;;;;5013367;28;20034;-79
2023/10/21 06:24:03;;;;;;;1.27;0.57;;;9.80;99.90;;;;;;5013235;28;20495;-79
2023/10/21 06:26:31;;;;;;;3.72;0.95;;;9.80;99.90;;;;;;5005460;28;20152;-79
2023/10/21 06:28:57;;;;;;;1.35;1.13;;;9.80;99.90;;;;;;5013451;28;20088;-79
2023/10/21 06:31:23;;;;;;;0.47;0.47;;;9.80;99.90;;;;;;5013495;28;20038;-79
2023/10/21 06:33:49;;;;;;;2.70;1.52;;;9.80;99.90;;;;;;5014089;28;20110;-79
2023/10/21 06:36:15;;;;;;;1.92;1.38;;;9.80;99.90;;;;;;5013546;28;20054;-79
2023/10/21 06:38:41;;;;;;;1.05;0.90;;;9.90;99.90;;;;;;5013517;28;20069;-79
2023/10/21 06:41:06;;;;;;;0.15;0.15;;;9.90;99.90;;;;;;5013501;28;20049;-79
2023/10/21 06:43:32;;;;;;;0.82;0.52;;;9.80;99.90;;;;;;5013282;28;20519;-79
2023/10/21 06:45:59;;;;;;;1.02;0.90;;;9.80;99.90;;;;;;5015193;28;20041;-79
2023/10/21 06:48:25;;;;;;;2.45;2.25;;;11.00;99.90;;;;;;5017204;28;20077;-79
2023/10/21 06:50:52;;;;;;;1.05;0.77;;;9.90;99.90;;;;;;5008977;28;20045;-79
2023/10/21 06:53:17;;;;;;;2.03;1.83;;;9.90;99.90;;;;;;5016849;28;20050;-79
2023/10/21 06:55:44;;;;;;;1.45;0.82;;;10.00;99.90;;;;;;5016771;28;20061;-79
2023/10/21 06:58:11;;;;;;;1.23;0.57;;;10.00;99.90;;;;;;5017185;28;20052;-79
2023/10/21 07:00:38;;;;;;;2.47;0.80;;;10.10;99.90;;;;;;5017937;28;20038;-79
2023/10/21 07:03:05;;;;;;;1.05;0.68;;;10.10;99.90;;;;;;5019852;28;20092;-79
2023/10/21 07:05:31;;;;;;;0.80;0.32;;;10.20;99.90;;;;;;5019124;28;20073;-79
2023/10/21 07:07:56;;;;;;;1.13;1.05;;;10.60;99.90;;;;;;5019640;28;20045;-79
2023/10/21 07:10:23;;;;;;;0.82;0.60;;;10.50;99.90;;;;;;5019200;28;20041;-79
2023/10/21 07:12:51;;;;;;;2.60;1.50;;;10.60;99.90;;;;;;5019132;28;20050;-79
2023/10/21 07:15:17;;;;;;;0.70;0.63;;;10.70;99.90;;;;;;5020167;28;20049;-79
2023/10/21 07:17:42;;;;;;;0.28;0.28;;;10.80;99.90;;;;;;5019094;28;20030;-79
2023/10/21 07:20:08;;;;;;;0.73;0.73;;;10.90;99.90;;;;;;5019454;28;20045;-79
2023/10/21 07:22:35;;;;;;;0.70;0.70;;;11.00;99.90;;;;;;5019587;28;20044;-79
2023/10/21 07:25:01;;;;;;;8.15;2.47;;;11.10;99.90;;;;;;5019476;28;20117;-79
2023/10/21 07:27:27;;;;;;;3.20;0.98;;;11.10;99.90;;;;;;5019196;28;20077;-79
2023/10/21 07:29:55;;;;;;;0.77;0.77;;;11.20;99.90;;;;;;5019256;28;20042;-79
2023/10/21 07:32:21;;;;;;;0.68;0.40;;;11.20;99.90;;;;;;5017994;28;20121;-79
2023/10/21 07:34:46;;;;;;;1.48;1.25;;;11.20;99.90;;;;;;5019321;28;20045;-79
2023/10/21 07:37:13;;;;;;;0.05;0.05;;;11.20;99.90;;;;;;5019361;28;20550;-79
2023/10/21 07:39:39;;;;;;;2.42;0.95;;;11.40;99.90;;;;;;5019359;28;20156;-79
2023/10/21 07:42:04;;;;;;;5.10;0.55;;;11.30;99.90;;;;;;5018928;28;20108;-79
2023/10/21 07:44:30;;;;;;;0.60;0.52;;;11.30;99.90;;;;;;5019292;28;20042;-77
2023/10/21 07:46:56;;;;;;;0.45;0.17;;;11.30;99.90;;;;;;5015380;28;20088;-78
2023/10/21 07:49:23;;;;;;;1.77;0.68;;;11.40;99.90;;;;;;5015552;28;20050;-79
2023/10/21 07:51:49;;;;;;;1.20;1.10;;;11.50;99.90;;;;;;5015135;28;20056;-78
2023/10/21 07:54:15;;;;;;;0.63;0.60;;;11.50;99.90;;;;;;5014070;28;20046;-78
2023/10/21 07:56:45;;;;;;;0.20;0.20;;;11.60;99.90;;;;;;5014690;28;20058;-78
2023/10/21 07:59:11;;;;;;;0.43;0.43;;;11.70;99.90;;;;;;5015410;28;20048;-78
2023/10/21 08:01:37;;;;;;;2.33;1.10;;;11.70;99.90;;;;;;5014916;28;20045;-78
2023/10/21 08:04:03;;;;;;;0.52;0.52;;;11.70;99.90;;;;;;5014898;28;20057;-78
2023/10/21 08:06:29;;;;;;;0.85;0.70;;;11.90;99.90;;;;;;5015304;28;20514;-78
2023/10/21 08:08:55;;;;;;;0.47;0.47;;;12.00;99.90;;;;;;5015796;28;20088;-78
2023/10/21 08:11:21;;;;;;;1.35;1.00;;;12.00;99.90;;;;;;5014501;28;20069;-78
2023/10/21 08:13:47;;;;;;;0.65;0.55;;;12.00;99.90;;;;;;5014862;28;20030;-78
2023/10/21 08:16:13;;;;;;;2.20;1.08;;;12.20;99.90;;;;;;5013677;28;20535;-78
2023/10/21 08:18:39;;;;;;;0.75;0.45;;;12.20;99.90;;;;;;5015311;28;20113;-78
2023/10/21 08:21:05;;;;;;;0.52;0.52;;;12.20;99.90;;;;;;5014794;28;20041;-78
2023/10/21 08:23:31;;;;;;;0.52;0.52;;;12.30;99.90;;;;;;5014699;28;20568;-78
2023/10/21 08:25:57;;;;;;;0.60;0.47;;;13.20;99.90;;;;;;5014726;28;20077;-78
2023/10/21 08:28:24;;;;;;;0.28;0.28;;;12.40;99.90;;;;;;5014207;28;20125;-78
2023/10/21 08:30:50;;;;;;;0.43;0.35;;;12.60;99.90;;;;;;5014326;28;20463;-78
2023/10/21 08:33:16;;;;;;;2.63;1.42;;;13.50;99.90;;;;;;5014344;28;20073;-78
2023/10/21 08:35:42;;;;;;;0.95;0.80;;;12.70;99.90;;;;;;5014487;28;20044;-78
2023/10/21 08:38:08;;;;;;;0.88;0.82;;;12.90;99.90;;;;;;5014115;28;20041;-78
2023/10/21 08:40:38;;;;;;;0.98;0.75;;;12.90;99.90;;;;;;5014248;28;20057;-78
2023/10/21 08:43:04;;;;;;;1.23;0.90;;;12.90;99.90;;;;;;5014519;28;20117;-78
2023/10/21 08:45:31;;;;;;;3.88;1.08;;;13.10;99.90;;;;;;5013943;28;20093;-78
2023/10/21 08:47:57;;;;;;;1.65;0.65;;;13.20;99.90;;;;;;5014288;28;20042;-78
2023/10/21 08:50:25;;;;;;;0.70;0.70;;;13.40;99.90;;;;;;5014226;28;20395;-78
2023/10/21 08:52:54;;;;;;;0.98;0.70;;;13.50;99.90;;;;;;5014452;28;20034;-78
2023/10/21 08:55:22;;;;;;;0.68;0.55;;;13.50;99.90;;;;;;5014127;28;20049;-78
2023/10/21 08:57:48;;;;;;;0.47;0.38;;;13.40;99.90;;;;;;5013938;28;20041;-78
2023/10/21 09:00:14;;;;;;;1.25;0.45;;;13.50;99.90;;;;;;5014715;28;20046;-78
2023/10/21 09:02:40;;;;;;;1.85;1.05;;;13.50;99.90;;;;;;5014281;28;20488;-78
2023/10/21 09:05:12;;;;;;;1.70;1.17;;;13.50;99.90;;;;;;5015476;28;20045;-78
2023/10/21 09:07:47;;;;;;;1.80;0.45;;;13.50;99.90;;;;;;5015505;28;20384;-78
2023/10/21 09:10:13;;;;;;;2.75;1.00;;;13.50;99.90;;;;;;5006451;28;20124;-78
2023/10/21 09:12:39;;;;;;;0.10;0.10;;;13.50;99.90;;;;;;5015775;28;20129;-79
2023/10/21 09:15:05;;;;;;;2.45;1.27;;;13.50;99.90;;;;;;5015630;28;20078;-78
2023/10/21 09:17:45;;;;;;;1.35;0.68;;;13.60;99.90;;;;;;5016573;28;20110;-79
2023/10/21 09:20:18;;;;;;;1.00;0.90;;;13.60;99.90;;;;;;5016677;28;20450;-79
2023/10/21 09:22:45;;;;;;;0.25;0.25;;;13.60;99.90;;;;;;5016530;28;20042;-79
2023/10/21 09:25:19;;;;;;;0.43;0.43;;;13.80;99.90;;;;;;5016539;28;20054;-78
2023/10/21 09:27:46;;;;;;;0.65;0.52;;;14.00;99.90;;;;;;5016538;28;20096;-78
2023/10/21 09:30:19;;;;;;;0.28;0.28;;;14.10;99.90;;;;;;5016350;28;20045;-78
2023/10/21 09:32:46;;;;;;;0.15;0.13;;;14.90;99.90;;;;;;5016758;28;20081;-78
2023/10/21 09:35:21;;;;;;;0.28;0.28;;;14.50;99.90;;;;;;5016866;28;20048;-78
2023/10/21 09:37:47;;;;;;;0.15;0.15;;;14.60;99.90;;;;;;5003392;28;20042;-78
2023/10/21 09:40:13;;;;;;;1.95;1.30;;;14.50;99.90;;;;;;5016276;28;20080;-78
2023/10/21 09:42:42;;;;;;;0.77;0.25;;;14.60;99.90;;;;;;5017243;28;20046;-79
2023/10/21 09:45:11;;;;;;;0.60;0.40;;;14.50;99.90;;;;;;5016224;28;20053;-79
2023/10/21 09:47:41;;;;;;;0.45;0.45;;;14.60;99.90;;;;;;5018196;28;20056;-79
2023/10/21 09:50:11;;;;;;;0.57;0.43;;;14.70;99.90;;;;;;5017710;28;20080;-78
2023/10/21 09:52:44;;;;;;;0.47;0.47;;;14.80;99.90;;;;;;5017853;28;20045;-79
2023/10/21 09:55:11;;;;;;;2.08;1.30;;;14.70;99.90;;;;;;5017035;28;20101;-79
2023/10/21 09:57:38;;;;;;;0.03;0.03;;;14.90;99.90;;;;;;5016259;28;20046;-79
2023/10/21 10:00:08;;;;;;;0.85;0.70;;;14.80;99.90;;;;;;5017082;28;20042;-78
2023/10/21 10:02:38;;;;;;;0.08;0.08;;;14.70;99.90;;;;;;5017231;28;20046;-79
2023/10/21 10:05:08;;;;;;;0.10;0.08;;;14.60;99.90;;;;;;5016994;28;20034;-78
2023/10/21 10:07:36;;;;;;;0.20;0.20;;;14.50;99.90;;;;;;5016135;28;20053;-79
2023/10/21 10:10:07;;;;;;;0.35;0.32;;;14.50;99.90;;;;;;5016628;28;20046;-78
2023/10/21 10:12:46;;;;;;;0.63;0.28;;;14.50;99.90;;;;;;5017208;28;20096;-78
2023/10/21 10:15:37;;;;;;;0.05;0.05;;;14.20;99.90;;;;;;5015714;28;20076;-79
2023/10/21 10:18:08;;;;;;;0.03;0.03;;;14.30;99.90;;;;;;5013639;28;20069;-78
2023/10/21 10:20:43;;;;;;;2.30;0.95;;;14.30;99.90;;;;;;5018498;28;20049;-79
2023/10/21 10:23:09;;;;;;;0.47;0.10;;;14.20;99.90;;;;;;5023463;28;20057;-79
2023/10/21 10:25:39;;;;;;;0.22;0.22;;;14.10;99.90;;;;;;5023341;28;20042;-80
2023/10/21 10:28:28;;;;;;;0.00;0.00;;;14.10;99.90;;;;;;5023425;28;20034;-79
2023/10/21 10:30:56;;;;;;;0.10;0.10;;;14.00;99.90;;;;;;5003540;28;20082;-80
2023/10/21 10:33:37;;;;;;;0.80;0.52;;;14.00;99.90;;;;;;5021699;28;20049;-79
2023/10/21 10:36:06;;;;;;;0.80;0.70;;;14.70;99.90;;;;;;5023656;28;20092;-80
2023/10/21 10:38:42;;;;;;;0.32;0.32;;;14.10;99.90;;;;;;5023923;28;20103;-80
2023/10/21 10:41:10;;;;;;;0.00;0.00;;;14.10;99.90;;;;;;5023240;28;20088;-79
2023/10/21 10:43:43;;;;;;;0.00;0.00;;;14.10;99.90;;;;;;5022930;28;20053;-80
2023/10/21 10:46:09;;;;;;;0.15;0.15;;;14.10;99.90;;;;;;5023784;28;20042;-81
2023/10/21 10:48:35;;;;;;;0.00;0.00;;;14.10;99.90;;;;;;5023473;28;20050;-81
2023/10/21 10:51:10;;;;;;;0.00;0.00;;;14.20;99.90;;;;;;5022834;28;20448;-81
2023/10/21 10:53:36;;;;;;;0.28;0.20;;;14.20;99.90;;;;;;5022928;28;20124;-80
2023/10/21 10:56:02;;;;;;;0.00;0.00;;;14.20;99.90;;;;;;5022044;28;20042;-80
2023/10/21 10:58:28;;;;;;;0.00;0.00;;;14.20;99.90;;;;;;5023483;28;20046;-80
2023/10/21 11:00:53;;;;;;;0.00;0.00;;;14.10;99.90;;;;;;5022477;28;20050;-79
2023/10/21 11:03:33;;;;;;;0.00;0.00;;;14.10;99.90;;;;;;5022507;28;20042;-80
2023/10/21 11:05:59;;;;;;;0.20;0.20;;;13.90;99.90;;;;;;5021977;28;20380;-80
2023/10/21 11:08:26;;;;;;;0.00;0.00;;;13.90;99.90;;;;;;5022228;28;20104;-80
2023/10/21 11:11:01;;;;;;;0.93;0.93;;;13.70;99.90;;;;;;5021576;28;20033;-82
2023/10/21 11:13:27;;;;;;;0.10;0.10;;;13.70;99.90;;;;;;5023105;28;20052;-80
2023/10/21 11:15:57;;;;;;;0.00;0.00;;;13.80;99.90;;;;;;5022750;28;20502;-82
2023/10/21 11:18:25;;;;;;;0.00;0.00;;;14.00;99.90;;;;;;5022765;28;20042;-81
2023/10/21 11:20:53;;;;;;;0.17;0.10;;;14.00;99.90;;;;;;5022600;28;20096;-80
2023/10/21 11:23:23;;;;;;;0.00;0.00;;;14.10;99.90;;;;;;5021923;28;20042;-80
2023/10/21 11:25:51;;;;;;;0.10;0.05;;;14.50;99.90;;;;;;5021838;28;20069;-81
2023/10/21 11:28:17;;;;;;;0.25;0.22;;;14.80;99.90;;;;;;5021751;28;20031;-80
2023/10/21 11:30:44;;;;;;;0.32;0.13;;;14.80;99.90;;;;;;5021897;28;20084;-80
2023/10/21 11:33:10;;;;;;;0.57;0.08;;;15.00;99.90;;;;;;5020961;28;20042;-80
2023/10/21 11:35:44;;;;;;;0.00;0.00;;;15.10;99.90;;;;;;5021941;28;20038;-80
2023/10/21 11:38:18;;;;;;;0.00;0.00;;;14.90;99.90;;;;;;5021596;28;20046;-80
2023/10/21 11:40:45;;;;;;;0.10;0.10;;;14.90;99.90;;;;;;5001873;28;20047;-80
2023/10/21 11:43:12;;;;;;;0.00;0.00;;;14.90;99.90;;;;;;5017579;28;20056;-80
2023/10/21 11:45:41;;;;;;;0.00;0.00;;;14.80;99.90;;;;;;5020259;28;20041;-80
2023/10/21 11:48:10;;;;;;;0.00;0.00;;;15.00;99.90;;;;;;5021045;28;20049;-80
2023/10/21 11:50:43;;;;;;;0.10;0.10;;;14.80;99.90;;;;;;5020094;28;20380;-80
2023/10/21 11:53:12;;;;;;;0.00;0.00;;;14.70;99.90;;;;;;5021073;28;20073;-80
2023/10/21 11:56:01;;;;;;;0.10;0.10;;;15.10;99.90;;;;;;5018498;28;20052;-79
2023/10/21 12:13:09;;;;;;;0.08;0.08;;;14.10;99.90;;;;;;5018922;28;20056;-79
2023/10/21 12:20:24;;;;;;;0.00;0.00;;;14.00;99.90;;;;;;5017591;28;20057;-79
2023/10/21 12:33:52;;;;;;;0.00;0.00;;;14.70;98.80;;;;;;5010963;28;20054;-80
2023/10/21 12:41:45;;;;;;;0.00;0.00;;;15.10;79.30;;;;;;5011417;28;20077;-80
2023/10/21 12:44:14;;;;;;;0.00;0.00;;;15.50;99.90;;;;;;5019764;28;20415;-79
2023/10/21 12:46:41;;;;;;;0.17;0.10;;;15.60;99.90;;;;;;5019783;28;20038;-80
2023/10/21 12:49:16;;;;;;;0.00;0.00;;;15.70;99.90;;;;;;5019778;28;20045;-80
2023/10/21 12:51:41;;;;;;;0.15;0.10;;;15.50;16.90;;;;;;5020205;28;20034;-80
2023/10/21 12:54:10;;;;;;;0.00;0.00;;;15.50;99.90;;;;;;5020357;28;20064;-80
2023/10/21 12:56:39;;;;;;;2.40;1.40;;;15.50;99.90;;;;;;5019835;28;20064;-80
2023/10/21 12:59:08;;;;;;;0.00;0.00;;;15.30;99.90;;;;;;5020998;28;20053;-79
2023/10/21 13:01:34;;;;;;;0.00;0.00;;;15.20;1.00;;;;;;5021051;28;20092;-80
2023/10/21 13:04:01;;;;;;;1.17;0.38;;;15.20;99.90;;;;;;5020037;28;20500;-80
2023/10/21 13:06:27;;;;;;;0.00;0.00;;;15.20;99.90;;;;;;5020409;28;20046;-80
2023/10/21 13:08:53;;;;;;;0.00;0.00;;;15.40;1.00;;;;;;5020351;28;20093;-80
2023/10/21 13:11:19;;;;;;;0.00;0.00;;;15.50;99.90;;;;;;5020888;28;20053;-80
2023/10/21 13:13:45;;;;;;;0.00;0.00;;;15.50;99.90;;;;;;5020298;28;20037;-80
2023/10/21 13:16:10;;;;;;;0.00;0.00;;;15.50;99.90;;;;;;5019987;28;20048;-80
2023/10/21 13:18:37;;;;;;;0.00;0.00;;;15.60;99.90;;;;;;5019617;28;20089;-80
2023/10/21 13:21:06;;;;;;;0.70;0.43;;;15.70;99.90;;;;;;5019509;28;20034;-80
2023/10/21 13:23:32;;;;;;;0.00;0.00;;;15.40;99.90;;;;;;5020398;28;20530;-80
2023/10/21 13:25:58;;;;;;;0.00;0.00;;;15.30;99.90;;;;;;5019995;28;20081;-80
2023/10/21 13:28:23;;;;;;;0.00;0.00;;;15.20;99.90;;;;;;5018981;28;20034;-80